sensor_id;sensor_type;location;lat;lon;timestamp;pressure;altitude;pressure_sealevel;temperature;humidity
68654;BME280;55636;51.108;13.622;2023-12-29T00:00:38;100061.78;;;8.70;50.02
68654;BME280;55636;51.108;13.622;2023-12-29T00:01:41;100054.38;;;8.70;49.98
68654;BME280;55636;51.108;13.622;2023-12-29T00:02:44;100053.53;;;8.70;50.15
68654;BME280;55636;51.108;13.622;2023-12-29T00:03:46;100044.72;;;8.68;50.09
68654;BME280;55636;51.108;13.622;2023-12-29T00:04:48;100049.13;;;8.69;50.13
68654;BME280;55636;51.108;13.622;2023-12-29T00:05:51;100041.38;;;8.66;50.13
68654;BME280;55636;51.108;13.622;2023-12-29T00:06:55;100038.34;;;8.67;50.21
68654;BME280;55636;51.108;13.622;2023-12-29T00:08:04;100032.28;;;8.65;50.22
68654;BME280;55636;51.108;13.622;2023-12-29T00:09:07;100033.38;;;8.64;50.16
68654;BME280;55636;51.108;13.622;2023-12-29T00:10:09;100034.44;;;8.63;50.15
68654;BME280;55636;51.108;13.622;2023-12-29T00:11:19;100027.03;;;8.64;50.20
68654;BME280;55636;51.108;13.622;2023-12-29T00:12:22;100025.63;;;8.61;50.16
68654;BME280;55636;51.108;13.622;2023-12-29T00:13:24;100027.53;;;8.61;50.20
68654;BME280;55636;51.108;13.622;2023-12-29T00:14:27;100021.47;;;8.59;49.94
68654;BME280;55636;51.108;13.622;2023-12-29T00:15:30;100026.13;;;8.58;50.16
68654;BME280;55636;51.108;13.622;2023-12-29T00:16:32;100018.94;;;8.57;50.38
68654;BME280;55636;51.108;13.622;2023-12-29T00:17:34;100013.69;;;8.55;50.33
68654;BME280;55636;51.108;13.622;2023-12-29T00:18:40;100012.88;;;8.55;50.42
68654;BME280;55636;51.108;13.622;2023-12-29T00:19:42;100016.72;;;8.54;50.23
68654;BME280;55636;51.108;13.622;2023-12-29T00:20:45;100007.63;;;8.53;50.38
68654;BME280;55636;51.108;13.622;2023-12-29T00:21:47;100005.97;;;8.52;50.24
68654;BME280;55636;51.108;13.622;2023-12-29T00:22:51;100004.28;;;8.51;50.43
68654;BME280;55636;51.108;13.622;2023-12-29T00:23:53;100006.22;;;8.51;50.33
68654;BME280;55636;51.108;13.622;2023-12-29T00:24:56;100010.06;;;8.50;50.57
68654;BME280;55636;51.108;13.622;2023-12-29T00:25:59;100000.13;;;8.49;50.36
68654;BME280;55636;51.108;13.622;2023-12-29T00:27:02;100006.72;;;8.48;50.48
68654;BME280;55636;51.108;13.622;2023-12-29T00:28:05;99997.63;;;8.47;50.61
68654;BME280;55636;51.108;13.622;2023-12-29T00:29:08;99998.16;;;8.44;50.60
68654;BME280;55636;51.108;13.622;2023-12-29T00:30:10;100000.91;;;8.44;50.62
68654;BME280;55636;51.108;13.622;2023-12-29T00:31:16;99997.31;;;8.44;50.62
68654;BME280;55636;51.108;13.622;2023-12-29T00:32:19;100003.06;;;8.42;50.73
68654;BME280;55636;51.108;13.622;2023-12-29T00:33:22;99996.75;;;8.42;50.71
68654;BME280;55636;51.108;13.622;2023-12-29T00:34:24;99997.81;;;8.41;50.66
68654;BME280;55636;51.108;13.622;2023-12-29T00:35:27;99988.97;;;8.38;50.86
68654;BME280;55636;51.108;13.622;2023-12-29T00:36:30;100000.00;;;8.38;50.94
68654;BME280;55636;51.108;13.622;2023-12-29T00:37:33;99992.81;;;8.37;51.05
68654;BME280;55636;51.108;13.622;2023-12-29T00:38:35;99989.25;;;8.37;51.14
68654;BME280;55636;51.108;13.622;2023-12-29T00:39:38;99995.81;;;8.36;51.12
68654;BME280;55636;51.108;13.622;2023-12-29T00:40:41;99994.16;;;8.35;51.32
68654;BME280;55636;51.108;13.622;2023-12-29T00:41:43;99991.41;;;8.35;51.26
68654;BME280;55636;51.108;13.622;2023-12-29T00:42:47;99992.00;;;8.37;51.23
68654;BME280;55636;51.108;13.622;2023-12-29T00:43:49;99985.91;;;8.35;51.48
68654;BME280;55636;51.108;13.622;2023-12-29T00:44:51;99982.31;;;8.34;51.57
68654;BME280;55636;51.108;13.622;2023-12-29T00:45:54;99989.75;;;8.34;51.67
68654;BME280;55636;51.108;13.622;2023-12-29T00:46:56;99989.75;;;8.34;51.74
68654;BME280;55636;51.108;13.622;2023-12-29T00:47:59;99988.09;;;8.33;51.58
68654;BME280;55636;51.108;13.622;2023-12-29T00:49:03;99980.91;;;8.32;51.60
68654;BME280;55636;51.108;13.622;2023-12-29T00:50:06;99985.34;;;8.33;51.68
68654;BME280;55636;51.108;13.622;2023-12-29T00:51:08;99979.25;;;8.31;51.66
68654;BME280;55636;51.108;13.622;2023-12-29T00:52:11;99979.25;;;8.31;51.84
68654;BME280;55636;51.108;13.622;2023-12-29T00:53:13;99982.59;;;8.33;51.89
68654;BME280;55636;51.108;13.622;2023-12-29T00:54:16;99982.84;;;8.31;51.92
68654;BME280;55636;51.108;13.622;2023-12-29T00:55:19;99975.41;;;8.32;51.98
68654;BME280;55636;51.108;13.622;2023-12-29T00:56:22;99984.47;;;8.32;52.01
68654;BME280;55636;51.108;13.622;2023-12-29T00:57:25;99985.34;;;8.33;52.00
68654;BME280;55636;51.108;13.622;2023-12-29T00:58:27;99986.69;;;8.30;52.10
68654;BME280;55636;51.108;13.622;2023-12-29T00:59:30;99985.59;;;8.31;52.03
68654;BME280;55636;51.108;13.622;2023-12-29T01:00:32;99982.59;;;8.33;52.06
68654;BME280;55636;51.108;13.622;2023-12-29T01:01:35;99990.00;;;8.32;52.13
68654;BME280;55636;51.108;13.622;2023-12-29T01:02:39;99988.09;;;8.33;52.11
68654;BME280;55636;51.108;13.622;2023-12-29T01:03:42;99991.09;;;8.31;52.13
68654;BME280;55636;51.108;13.622;2023-12-29T01:04:45;99986.41;;;8.32;52.13
68654;BME280;55636;51.108;13.622;2023-12-29T01:05:47;99982.59;;;8.33;52.06
68654;BME280;55636;51.108;13.622;2023-12-29T01:06:50;99988.91;;;8.33;52.18
68654;BME280;55636;51.108;13.622;2023-12-29T01:07:54;99992.50;;;8.34;51.97
68654;BME280;55636;51.108;13.622;2023-12-29T01:08:58;99994.41;;;8.33;52.14
68654;BME280;55636;51.108;13.622;2023-12-29T01:10:00;99989.75;;;8.34;52.06
68654;BME280;55636;51.108;13.622;2023-12-29T01:11:03;99984.25;;;8.34;52.23
68654;BME280;55636;51.108;13.622;2023-12-29T01:12:06;99988.66;;;8.35;52.14
68654;BME280;55636;51.108;13.622;2023-12-29T01:13:08;99978.75;;;8.34;52.24
68654;BME280;55636;51.108;13.622;2023-12-29T01:14:11;99985.06;;;8.34;52.19
68654;BME280;55636;51.108;13.622;2023-12-29T01:15:13;99985.91;;;8.35;52.17
68654;BME280;55636;51.108;13.622;2023-12-29T01:16:15;99982.31;;;8.34;52.29
68654;BME280;55636;51.108;13.622;2023-12-29T01:17:18;99979.56;;;8.34;52.23
68654;BME280;55636;51.108;13.622;2023-12-29T01:18:20;99979.31;;;8.36;52.07
68654;BME280;55636;51.108;13.622;2023-12-29T01:19:23;99974.66;;;8.36;52.05
68654;BME280;55636;51.108;13.622;2023-12-29T01:20:27;99978.50;;;8.35;52.14
68654;BME280;55636;51.108;13.622;2023-12-29T01:21:29;99976.28;;;8.37;52.47
68654;BME280;55636;51.108;13.622;2023-12-29T01:22:36;99975.47;;;8.37;52.78
68654;BME280;55636;51.108;13.622;2023-12-29T01:23:39;99975.22;;;8.38;52.84
68654;BME280;55636;51.108;13.622;2023-12-29T01:24:41;99985.16;;;8.39;52.82
68654;BME280;55636;51.108;13.622;2023-12-29T01:25:47;99976.88;;;8.39;52.85
68654;BME280;55636;51.108;13.622;2023-12-29T01:26:52;99978.56;;;8.41;52.81
68654;BME280;55636;51.108;13.622;2023-12-29T01:27:54;99974.94;;;8.40;52.82
68654;BME280;55636;51.108;13.622;2023-12-29T01:28:57;99982.72;;;8.43;52.66
68654;BME280;55636;51.108;13.622;2023-12-29T01:29:59;99982.72;;;8.43;52.47
68654;BME280;55636;51.108;13.622;2023-12-29T01:31:03;99994.28;;;8.45;52.65
68654;BME280;55636;51.108;13.622;2023-12-29T01:32:07;99985.81;;;8.47;52.43
68654;BME280;55636;51.108;13.622;2023-12-29T01:33:10;99987.72;;;8.46;52.23
68654;BME280;55636;51.108;13.622;2023-12-29T01:34:13;99989.97;;;8.49;52.31
68654;BME280;55636;51.108;13.622;2023-12-29T01:35:15;99982.78;;;8.48;52.16
68654;BME280;55636;51.108;13.622;2023-12-29T01:36:20;99987.22;;;8.49;52.10
68654;BME280;55636;51.108;13.622;2023-12-29T01:37:26;99984.47;;;8.49;52.12
68654;BME280;55636;51.108;13.622;2023-12-29T01:38:29;99984.47;;;8.49;51.96
68654;BME280;55636;51.108;13.622;2023-12-29T01:39:33;99980.03;;;8.48;52.00
68654;BME280;55636;51.108;13.622;2023-12-29T01:40:46;99976.19;;;8.49;52.01
68654;BME280;55636;51.108;13.622;2023-12-29T01:41:49;99974.28;;;8.50;51.93
68654;BME280;55636;51.108;13.622;2023-12-29T01:42:51;99975.94;;;8.51;52.02
68654;BME280;55636;51.108;13.622;2023-12-29T01:45:03;99976.75;;;8.51;51.78
68654;BME280;55636;51.108;13.622;2023-12-29T01:46:06;99977.56;;;8.52;51.94
68654;BME280;55636;51.108;13.622;2023-12-29T01:47:14;99977.34;;;8.53;51.96
68654;BME280;55636;51.108;13.622;2023-12-29T01:48:22;99979.25;;;8.53;51.80
68654;BME280;55636;51.108;13.622;2023-12-29T01:49:25;99980.09;;;8.53;51.76
68654;BME280;55636;51.108;13.622;2023-12-29T01:50:29;99970.16;;;8.52;51.69
68654;BME280;55636;51.108;13.622;2023-12-29T01:51:32;99965.22;;;8.54;51.70
68654;BME280;55636;51.108;13.622;2023-12-29T01:52:34;99963.59;;;8.53;51.66
68654;BME280;55636;51.108;13.622;2023-12-29T01:53:37;99956.16;;;8.54;51.61
68654;BME280;55636;51.108;13.622;2023-12-29T01:54:50;99955.06;;;8.55;51.73
68654;BME280;55636;51.108;13.622;2023-12-29T01:55:53;99945.94;;;8.54;51.68
68654;BME280;55636;51.108;13.622;2023-12-29T01:56:57;99958.63;;;8.55;51.69
68654;BME280;55636;51.108;13.622;2023-12-29T01:58:02;99960.56;;;8.55;51.61
68654;BME280;55636;51.108;13.622;2023-12-29T01:59:05;99960.31;;;8.57;51.55
68654;BME280;55636;51.108;13.622;2023-12-29T02:00:17;99957.56;;;8.57;51.46
68654;BME280;55636;51.108;13.622;2023-12-29T02:01:20;99961.38;;;8.55;51.51
68654;BME280;55636;51.108;13.622;2023-12-29T02:02:23;99958.38;;;8.57;51.35
68654;BME280;55636;51.108;13.622;2023-12-29T02:03:26;99965.81;;;8.57;51.30
68654;BME280;55636;51.108;13.622;2023-12-29T02:04:28;99954.81;;;8.57;51.27
68654;BME280;55636;51.108;13.622;2023-12-29T02:05:33;99961.13;;;8.57;51.18
68654;BME280;55636;51.108;13.622;2023-12-29T02:06:37;99956.47;;;8.58;51.20
68654;BME280;55636;51.108;13.622;2023-12-29T02:07:40;99950.97;;;8.58;51.20
68654;BME280;55636;51.108;13.622;2023-12-29T02:08:44;99950.97;;;8.58;51.22
68654;BME280;55636;51.108;13.622;2023-12-29T02:09:47;99949.88;;;8.59;51.17
68654;BME280;55636;51.108;13.622;2023-12-29T02:10:51;99953.44;;;8.59;50.86
68654;BME280;55636;51.108;13.622;2023-12-29T02:11:54;99948.75;;;8.60;51.10
68654;BME280;55636;51.108;13.622;2023-12-29T02:12:58;99944.94;;;8.61;51.08
68654;BME280;55636;51.108;13.622;2023-12-29T02:14:02;99947.69;;;8.61;50.86
68654;BME280;55636;51.108;13.622;2023-12-29T02:15:07;99947.41;;;8.62;51.01
68654;BME280;55636;51.108;13.622;2023-12-29T02:16:16;99945.50;;;8.63;50.86
68654;BME280;55636;51.108;13.622;2023-12-29T02:18:27;99940.84;;;8.63;51.08
68654;BME280;55636;51.108;13.622;2023-12-29T02:20:42;99927.31;;;8.62;50.85
68654;BME280;55636;51.108;13.622;2023-12-29T02:21:44;99935.31;;;8.63;50.80
68654;BME280;55636;51.108;13.622;2023-12-29T02:22:47;99933.41;;;8.64;50.82
68654;BME280;55636;51.108;13.622;2023-12-29T02:23:49;99925.97;;;8.64;50.87
68654;BME280;55636;51.108;13.622;2023-12-29T02:24:52;99928.72;;;8.64;50.90
68654;BME280;55636;51.108;13.622;2023-12-29T02:26:00;99925.97;;;8.64;50.82
68654;BME280;55636;51.108;13.622;2023-12-29T02:27:12;99923.22;;;8.64;50.89
68654;BME280;55636;51.108;13.622;2023-12-29T02:28:25;99917.72;;;8.64;50.83
68654;BME280;55636;51.108;13.622;2023-12-29T02:29:30;99918.53;;;8.65;50.75
68654;BME280;55636;51.108;13.622;2023-12-29T02:31:53;99907.53;;;8.65;50.83
68654;BME280;55636;51.108;13.622;2023-12-29T02:33:01;99900.38;;;8.64;50.89
68654;BME280;55636;51.108;13.622;2023-12-29T02:34:08;99902.00;;;8.65;50.80
68654;BME280;55636;51.108;13.622;2023-12-29T02:35:18;99903.13;;;8.64;50.74
68654;BME280;55636;51.108;13.622;2023-12-29T02:36:23;99905.31;;;8.62;50.94
68654;BME280;55636;51.108;13.622;2023-12-29T02:37:27;99913.28;;;8.63;50.81
68654;BME280;55636;51.108;13.622;2023-12-29T02:38:30;99903.38;;;8.62;50.83
68654;BME280;55636;51.108;13.622;2023-12-29T02:39:33;99902.28;;;8.63;50.98
68654;BME280;55636;51.108;13.622;2023-12-29T02:40:35;99907.53;;;8.65;50.62
68654;BME280;55636;51.108;13.622;2023-12-29T02:41:38;99906.13;;;8.62;50.87
68654;BME280;55636;51.108;13.622;2023-12-29T02:42:46;99902.56;;;8.62;50.79
68654;BME280;55636;51.108;13.622;2023-12-29T02:43:49;99893.47;;;8.61;50.99
68654;BME280;55636;51.108;13.622;2023-12-29T02:44:51;99898.97;;;8.61;50.88
68654;BME280;55636;51.108;13.622;2023-12-29T02:45:54;99897.31;;;8.60;50.99
68654;BME280;55636;51.108;13.622;2023-12-29T02:46:56;99890.94;;;8.60;50.96
68654;BME280;55636;51.108;13.622;2023-12-29T02:47:59;99889.31;;;8.59;51.00
68654;BME280;55636;51.108;13.622;2023-12-29T02:49:02;99893.69;;;8.60;51.11
68654;BME280;55636;51.108;13.622;2023-12-29T02:50:05;99886.56;;;8.59;51.13
68654;BME280;55636;51.108;13.622;2023-12-29T02:51:07;99898.38;;;8.59;51.18
68654;BME280;55636;51.108;13.622;2023-12-29T02:52:10;99879.38;;;8.58;51.07
68654;BME280;55636;51.108;13.622;2023-12-29T02:53:13;99887.63;;;8.58;51.15
68654;BME280;55636;51.108;13.622;2023-12-29T02:54:15;99883.22;;;8.57;51.40
68654;BME280;55636;51.108;13.622;2023-12-29T02:55:18;99884.03;;;8.57;51.50
68654;BME280;55636;51.108;13.622;2023-12-29T02:56:20;99886.78;;;8.57;51.50
68654;BME280;55636;51.108;13.622;2023-12-29T02:57:24;99875.53;;;8.59;51.51
68654;BME280;55636;51.108;13.622;2023-12-29T02:58:26;99882.41;;;8.56;51.52
68654;BME280;55636;51.108;13.622;2023-12-29T02:59:30;99878.53;;;8.57;51.55
68654;BME280;55636;51.108;13.622;2023-12-29T03:00:32;99880.47;;;8.57;51.66
68654;BME280;55636;51.108;13.622;2023-12-29T03:01:35;99875.78;;;8.57;51.73
68654;BME280;55636;51.108;13.622;2023-12-29T03:02:38;99881.28;;;8.57;51.71
68654;BME280;55636;51.108;13.622;2023-12-29T03:03:40;99872.19;;;8.57;51.86
68654;BME280;55636;51.108;13.622;2023-12-29T03:04:44;99873.28;;;8.55;51.76
68654;BME280;55636;51.108;13.622;2023-12-29T03:05:47;99875.78;;;8.57;51.59
68654;BME280;55636;51.108;13.622;2023-12-29T03:06:49;99879.66;;;8.56;51.96
68654;BME280;55636;51.108;13.622;2023-12-29T03:07:52;99876.03;;;8.55;51.87
68654;BME280;55636;51.108;13.622;2023-12-29T03:08:54;99868.38;;;8.58;51.80
68654;BME280;55636;51.108;13.622;2023-12-29T03:09:57;99875.78;;;8.57;51.96
68654;BME280;55636;51.108;13.622;2023-12-29T03:10:59;99866.16;;;8.60;51.79
68654;BME280;55636;51.108;13.622;2023-12-29T03:12:02;99865.63;;;8.58;51.99
68654;BME280;55636;51.108;13.622;2023-12-29T03:13:04;99870.28;;;8.57;51.79
68654;BME280;55636;51.108;13.622;2023-12-29T03:14:07;99869.19;;;8.58;51.91
68654;BME280;55636;51.108;13.622;2023-12-29T03:15:10;99873.63;;;8.59;51.98
68654;BME280;55636;51.108;13.622;2023-12-29T03:16:12;99875.28;;;8.60;51.87
68654;BME280;55636;51.108;13.622;2023-12-29T03:17:15;99865.94;;;8.61;51.85
68654;BME280;55636;51.108;13.622;2023-12-29T03:18:17;99872.53;;;8.60;52.10
68654;BME280;55636;51.108;13.622;2023-12-29T03:19:20;99870.59;;;8.61;51.98
68654;BME280;55636;51.108;13.622;2023-12-29T03:20:23;99877.50;;;8.63;51.87
68654;BME280;55636;51.108;13.622;2023-12-29T03:21:25;99863.47;;;8.65;51.75
68654;BME280;55636;51.108;13.622;2023-12-29T03:22:28;99862.66;;;8.64;51.85
68654;BME280;55636;51.108;13.622;2023-12-29T03:23:31;99873.41;;;8.66;51.83
68654;BME280;55636;51.108;13.622;2023-12-29T03:24:34;99860.47;;;8.66;52.01
68654;BME280;55636;51.108;13.622;2023-12-29T03:25:37;99865.72;;;8.68;51.73
68654;BME280;55636;51.108;13.622;2023-12-29T03:26:40;99869.03;;;8.70;51.89
68654;BME280;55636;51.108;13.622;2023-12-29T03:27:43;99869.88;;;8.70;51.88
68654;BME280;55636;51.108;13.622;2023-12-29T03:28:45;99879.81;;;8.71;52.06
68654;BME280;55636;51.108;13.622;2023-12-29T03:29:48;99875.94;;;8.72;51.98
68654;BME280;55636;51.108;13.622;2023-12-29T03:30:50;99872.09;;;8.74;51.84
68654;BME280;55636;51.108;13.622;2023-12-29T03:31:53;99871.88;;;8.75;51.84
68654;BME280;55636;51.108;13.622;2023-12-29T03:32:55;99871.03;;;8.75;51.88
68654;BME280;55636;51.108;13.622;2023-12-29T03:33:58;99873.28;;;8.78;51.94
68654;BME280;55636;51.108;13.622;2023-12-29T03:35:00;99870.50;;;8.78;51.73
68654;BME280;55636;51.108;13.622;2023-12-29T03:36:03;99872.19;;;8.79;51.94
68654;BME280;55636;51.108;13.622;2023-12-29T03:37:06;99867.50;;;8.79;51.78
68654;BME280;55636;51.108;13.622;2023-12-29T03:38:08;99863.66;;;8.80;51.85
68654;BME280;55636;51.108;13.622;2023-12-29T03:39:11;99865.31;;;8.81;51.88
68654;BME280;55636;51.108;13.622;2023-12-29T03:40:13;99861.47;;;8.82;51.94
68654;BME280;55636;51.108;13.622;2023-12-29T03:41:16;99861.75;;;8.81;52.07
68654;BME280;55636;51.108;13.622;2023-12-29T03:42:18;99860.91;;;8.80;52.12
68654;BME280;55636;51.108;13.622;2023-12-29T03:43:21;99857.06;;;8.81;51.98
68654;BME280;55636;51.108;13.622;2023-12-29T03:44:24;99857.88;;;8.82;51.97
68654;BME280;55636;51.108;13.622;2023-12-29T03:45:27;99856.78;;;8.83;51.96
68654;BME280;55636;51.108;13.622;2023-12-29T03:46:29;99869.22;;;8.85;51.90
68654;BME280;55636;51.108;13.622;2023-12-29T03:47:32;99867.31;;;8.86;52.12
68654;BME280;55636;51.108;13.622;2023-12-29T03:48:34;99867.03;;;8.87;52.08
68654;BME280;55636;51.108;13.622;2023-12-29T03:49:37;99873.38;;;8.88;51.91
68654;BME280;55636;51.108;13.622;2023-12-29T03:50:40;99864.84;;;8.90;51.93
68654;BME280;55636;51.108;13.622;2023-12-29T03:51:44;99853.81;;;8.90;51.98
68654;BME280;55636;51.108;13.622;2023-12-29T03:52:46;99862.94;;;8.90;52.11
68654;BME280;55636;51.108;13.622;2023-12-29T03:53:48;99867.09;;;8.93;52.01
68654;BME280;55636;51.108;13.622;2023-12-29T03:54:51;99866.25;;;8.92;51.79
68654;BME280;55636;51.108;13.622;2023-12-29T03:55:54;99862.66;;;8.92;51.96
68654;BME280;55636;51.108;13.622;2023-12-29T03:56:56;99861.59;;;8.93;52.02
68654;BME280;55636;51.108;13.622;2023-12-29T03:57:59;99851.66;;;8.92;51.94
68654;BME280;55636;51.108;13.622;2023-12-29T03:59:03;99847.81;;;8.93;51.89
68654;BME280;55636;51.108;13.622;2023-12-29T04:00:06;99851.13;;;8.95;51.95
68654;BME280;55636;51.108;13.622;2023-12-29T04:01:14;99846.72;;;8.94;51.90
68654;BME280;55636;51.108;13.622;2023-12-29T04:02:17;99843.97;;;8.94;51.96
68654;BME280;55636;51.108;13.622;2023-12-29T04:03:20;99842.84;;;8.95;51.83
68654;BME280;55636;51.108;13.622;2023-12-29T04:04:22;99841.75;;;8.96;51.83
68654;BME280;55636;51.108;13.622;2023-12-29T04:05:26;99841.75;;;8.96;51.91
68654;BME280;55636;51.108;13.622;2023-12-29T04:06:29;99831.59;;;8.96;52.10
68654;BME280;55636;51.108;13.622;2023-12-29T04:07:32;99828.00;;;8.96;52.07
68654;BME280;55636;51.108;13.622;2023-12-29T04:08:34;99826.09;;;8.96;51.92
68654;BME280;55636;51.108;13.622;2023-12-29T04:09:38;99824.16;;;8.97;52.04
68654;BME280;55636;51.108;13.622;2023-12-29T04:10:40;99821.41;;;8.97;51.87
68654;BME280;55636;51.108;13.622;2023-12-29T04:11:43;99823.06;;;8.98;51.97
68654;BME280;55636;51.108;13.622;2023-12-29T04:12:45;99823.59;;;9.00;52.12
68654;BME280;55636;51.108;13.622;2023-12-29T04:13:48;99824.69;;;8.99;52.01
68654;BME280;55636;51.108;13.622;2023-12-29T04:14:50;99824.69;;;8.99;52.01
68654;BME280;55636;51.108;13.622;2023-12-29T04:15:53;99820.31;;;8.98;52.08
68654;BME280;55636;51.108;13.622;2023-12-29T04:16:55;99819.47;;;8.97;51.98
68654;BME280;55636;51.108;13.622;2023-12-29T04:17:57;99818.94;;;9.00;51.93
68654;BME280;55636;51.108;13.622;2023-12-29T04:19:00;99817.28;;;8.99;52.03
68654;BME280;55636;51.108;13.622;2023-12-29T04:20:03;99817.28;;;8.99;52.10
68654;BME280;55636;51.108;13.622;2023-12-29T04:21:06;99822.53;;;9.01;52.01
68654;BME280;55636;51.108;13.622;2023-12-29T04:22:12;99819.75;;;9.01;51.96
68654;BME280;55636;51.108;13.622;2023-12-29T04:23:14;99822.53;;;9.01;52.00
68654;BME280;55636;51.108;13.622;2023-12-29T04:24:17;99830.53;;;9.02;51.95
68654;BME280;55636;51.108;13.622;2023-12-29T04:25:19;99815.94;;;9.02;52.06
68654;BME280;55636;51.108;13.622;2023-12-29T04:26:22;99820.34;;;9.03;51.92
68654;BME280;55636;51.108;13.622;2023-12-29T04:27:24;99820.09;;;9.04;51.90
68654;BME280;55636;51.108;13.622;2023-12-29T04:28:27;99820.91;;;9.05;51.91
68654;BME280;55636;51.108;13.622;2023-12-29T04:29:31;99825.59;;;9.04;51.94
68654;BME280;55636;51.108;13.622;2023-12-29T04:30:34;99826.13;;;9.07;52.07
68654;BME280;55636;51.108;13.622;2023-12-29T04:31:37;99826.13;;;9.07;51.95
68654;BME280;55636;51.108;13.622;2023-12-29T04:32:40;99817.06;;;9.06;51.83
68654;BME280;55636;51.108;13.622;2023-12-29T04:33:42;99816.22;;;9.06;52.07
68654;BME280;55636;51.108;13.622;2023-12-29T04:34:45;99824.22;;;9.07;52.09
68654;BME280;55636;51.108;13.622;2023-12-29T04:35:48;99817.88;;;9.07;52.03
68654;BME280;55636;51.108;13.622;2023-12-29T04:36:51;99813.47;;;9.06;52.15
68654;BME280;55636;51.108;13.622;2023-12-29T04:37:53;99822.28;;;9.08;51.89
68654;BME280;55636;51.108;13.622;2023-12-29T04:38:56;99815.69;;;9.09;51.99
68654;BME280;55636;51.108;13.622;2023-12-29T04:39:58;99825.63;;;9.10;51.96
68654;BME280;55636;51.108;13.622;2023-12-29T04:41:01;99824.78;;;9.09;51.89
68654;BME280;55636;51.108;13.622;2023-12-29T04:42:03;99820.94;;;9.10;51.85
68654;BME280;55636;51.108;13.622;2023-12-29T04:43:06;99824.53;;;9.11;51.86
68654;BME280;55636;51.108;13.622;2023-12-29T04:44:09;99826.19;;;9.12;51.82
68654;BME280;55636;51.108;13.622;2023-12-29T04:45:12;99829.78;;;9.12;51.79
68654;BME280;55636;51.108;13.622;2023-12-29T04:46:15;99824.53;;;9.11;51.80
68654;BME280;55636;51.108;13.622;2023-12-29T04:47:17;99824.28;;;9.12;51.68
68654;BME280;55636;51.108;13.622;2023-12-29T04:48:19;99825.94;;;9.13;51.83
68654;BME280;55636;51.108;13.622;2023-12-29T04:49:22;99816.56;;;9.14;51.43
68654;BME280;55636;51.108;13.622;2023-12-29T04:50:25;99817.41;;;9.15;51.57
68654;BME280;55636;51.108;13.622;2023-12-29T04:51:27;99823.72;;;9.15;51.59
68654;BME280;55636;51.108;13.622;2023-12-29T04:52:29;99818.22;;;9.15;51.42
68654;BME280;55636;51.108;13.622;2023-12-29T04:53:32;99815.19;;;9.17;51.43
68654;BME280;55636;51.108;13.622;2023-12-29T04:54:34;99821.56;;;9.17;51.25
68654;BME280;55636;51.108;13.622;2023-12-29T04:55:36;99813.28;;;9.17;51.11
68654;BME280;55636;51.108;13.622;2023-12-29T04:56:39;99811.34;;;9.18;51.03
68654;BME280;55636;51.108;13.622;2023-12-29T04:57:41;99807.50;;;9.19;51.05
68654;BME280;55636;51.108;13.622;2023-12-29T04:58:44;99801.19;;;9.18;50.89
68654;BME280;55636;51.108;13.622;2023-12-29T04:59:47;99801.19;;;9.18;50.87
68654;BME280;55636;51.108;13.622;2023-12-29T05:00:49;99808.59;;;9.18;50.66
68654;BME280;55636;51.108;13.622;2023-12-29T05:01:52;99807.50;;;9.19;50.72
68654;BME280;55636;51.108;13.622;2023-12-29T05:02:55;99808.59;;;9.18;50.78
68654;BME280;55636;51.108;13.622;2023-12-29T05:03:57;99804.75;;;9.19;50.48
68654;BME280;55636;51.108;13.622;2023-12-29T05:05:00;99819.09;;;9.21;50.56
68654;BME280;55636;51.108;13.622;2023-12-29T05:06:02;99808.06;;;9.21;50.52
68654;BME280;55636;51.108;13.622;2023-12-29T05:07:07;99806.97;;;9.22;50.54
68654;BME280;55636;51.108;13.622;2023-12-29T05:08:10;99801.47;;;9.22;50.38
68654;BME280;55636;51.108;13.622;2023-12-29T05:09:12;99817.19;;;9.21;50.38
68654;BME280;55636;51.108;13.622;2023-12-29T05:10:15;99824.91;;;9.25;50.18
68654;BME280;55636;51.108;13.622;2023-12-29T05:11:17;99811.13;;;9.25;50.32
68654;BME280;55636;51.108;13.622;2023-12-29T05:12:20;99804.78;;;9.24;50.07
68654;BME280;55636;51.108;13.622;2023-12-29T05:13:22;99804.22;;;9.22;50.06
68654;BME280;55636;51.108;13.622;2023-12-29T05:14:24;99819.94;;;9.21;49.89
68654;BME280;55636;51.108;13.622;2023-12-29T05:15:28;99813.88;;;9.25;50.08
68654;BME280;55636;51.108;13.622;2023-12-29T05:16:31;99817.47;;;9.25;50.09
68654;BME280;55636;51.108;13.622;2023-12-29T05:17:33;99821.06;;;9.26;49.88
68654;BME280;55636;51.108;13.622;2023-12-29T05:18:36;99816.34;;;9.26;49.83
68654;BME280;55636;51.108;13.622;2023-12-29T05:19:39;99829.06;;;9.27;49.66
68654;BME280;55636;51.108;13.622;2023-12-29T05:20:41;99814.19;;;9.28;49.73
68654;BME280;55636;51.108;13.622;2023-12-29T05:21:45;99802.88;;;9.30;49.73
68654;BME280;55636;51.108;13.622;2023-12-29T05:22:48;99803.75;;;9.30;49.46
68654;BME280;55636;51.108;13.622;2023-12-29T05:23:51;99804.56;;;9.31;49.63
68654;BME280;55636;51.108;13.622;2023-12-29T05:24:54;99802.38;;;9.33;49.27
68654;BME280;55636;51.108;13.622;2023-12-29T05:26:00;99806.72;;;9.29;49.57
68654;BME280;55636;51.108;13.622;2023-12-29T05:27:03;99803.47;;;9.32;49.39
68654;BME280;55636;51.108;13.622;2023-12-29T05:28:05;99802.38;;;9.33;49.39
68654;BME280;55636;51.108;13.622;2023-12-29T05:29:08;99798.78;;;9.32;49.33
68654;BME280;55636;51.108;13.622;2023-12-29T05:30:11;99803.19;;;9.33;49.34
68654;BME280;55636;51.108;13.622;2023-12-29T05:31:14;99798.50;;;9.34;49.30
68654;BME280;55636;51.108;13.622;2023-12-29T05:32:16;99792.16;;;9.33;49.07
68654;BME280;55636;51.108;13.622;2023-12-29T05:33:19;99804.59;;;9.36;49.10
68654;BME280;55636;51.108;13.622;2023-12-29T05:34:21;99802.94;;;9.35;49.00
68654;BME280;55636;51.108;13.622;2023-12-29T05:35:24;99803.78;;;9.35;48.98
68654;BME280;55636;51.108;13.622;2023-12-29T05:36:26;99805.69;;;9.35;48.71
68654;BME280;55636;51.108;13.622;2023-12-29T05:37:29;99816.69;;;9.35;48.86
68654;BME280;55636;51.108;13.622;2023-12-29T05:38:31;99802.94;;;9.35;48.96
68654;BME280;55636;51.108;13.622;2023-12-29T05:39:33;99814.78;;;9.35;48.74